This is the latest recevied weather packets stored in our database for station/object W1CAT. If no packets are shown the sender has not sent any weather packets the latest 10 day(s).
| Time | Temp. | Humidity | Pressure | Rain* | Wind** | Luminosity | Snow |
|---|---|---|---|---|---|---|---|
| 1778005897 | 14.44° C | 39% | - | 0 mm | - | - | - |
| 1778005593 | 15° C | 38% | - | 0 mm | - | - | - |
| 1778005290 | 15.56° C | 37% | - | 0 mm | - | - | - |
| 1778004986 | 16.11° C | 37% | - | 0 mm | - | - | - |
| 1778004684 | 16.11° C | 37% | - | 0 mm | - | - | - |
| 1778004380 | 16.11° C | 38% | - | 0 mm | - | - | - |
| 1778004078 | 15° C | 40% | - | 0 mm | - | - | - |
| 1778003773 | 15° C | 39% | - | 0 mm | - | - | - |
| 1778003470 | 14.44° C | 40% | - | 0 mm | - | - | - |
| 1778003166 | 14.44° C | 40% | - | 0 mm | - | - | - |
| 1778002862 | 13.89° C | 39% | - | 0 mm | - | - | - |
| 1778002559 | 14.44° C | 39% | - | 0 mm | - | - | - |
| 1778002256 | 13.89° C | 38% | - | 0 mm | - | - | - |
| 1778001954 | 13.89° C | 42% | - | 0 mm | - | - | - |
| 1778001650 | 14.44° C | 38% | - | 0 mm | - | - | - |
| 1778001345 | 15° C | 37% | - | 0 mm | - | - | - |
| 1778001042 | 16.67° C | 33% | - | 0 mm | - | - | - |
| 1778000733 | 16.67° C | 34% | - | 0 mm | - | - | - |
| 1778000430 | 16.67° C | 32% | - | 0 mm | - | - | - |
| 1778000125 | 16.67° C | 33% | - | 0 mm | - | - | - |
| 1777999820 | 16.67° C | 34% | - | 0 mm | - | - | - |
| 1777999517 | 18.33° C | 32% | - | 0 mm | - | - | - |
| 1777999215 | 18.89° C | 33% | - | 0 mm | - | - | - |
| 1777998913 | 18.33° C | 32% | - | 0 mm | - | - | - |
| 1777998609 | 16.67° C | 34% | - | 0 mm | - | - | - |
* Rain latest hour (hover to see other rain measurements)
** Current wind speed in m/s (hover to see current wind gust speed)